Time;durP1;ratioP1;P1;durP2;ratioP2;P2;SDS_P1;SDS_P2;PMS_P1;PMS_P2;Temp;Humidity;BMP_temperature;BMP_pressure;BME280_temperature;BME280_humidity;BME280_pressure;Samples;Min_cycle;Max_cycle;Signal;HPM_P1;HPM_P2
2022/09/13 00:00:36;;;;;;;34.35;21.92;;;17.30;99.90;;;;;;5085225;28;20085;-67
2022/09/13 00:03:03;;;;;;;32.58;21.95;;;17.30;99.90;;;;;;5087207;28;20060;-67
2022/09/13 00:05:29;;;;;;;23.98;20.27;;;17.30;99.90;;;;;;5087889;28;20040;-67
2022/09/13 00:07:55;;;;;;;29.35;20.83;;;17.30;99.90;;;;;;5086604;28;20126;-67
2022/09/13 00:10:21;;;;;;;31.70;24.65;;;17.20;99.90;;;;;;5083601;28;20202;-70
2022/09/13 00:12:47;;;;;;;23.40;19.45;;;17.30;99.90;;;;;;5083223;28;20063;-70
2022/09/13 00:15:14;;;;;;;29.20;21.75;;;17.30;99.90;;;;;;5087891;28;20044;-68
2022/09/13 00:17:39;;;;;;;31.85;22.58;;;17.30;99.90;;;;;;5087318;28;20035;-66
2022/09/13 00:20:07;;;;;;;42.28;23.67;;;17.30;99.90;;;;;;5087685;28;20408;-65
2022/09/13 00:22:33;;;;;;;28.67;19.83;;;17.30;99.90;;;;;;5088202;28;20474;-66
2022/09/13 00:24:59;;;;;;;24.98;19.25;;;17.30;99.90;;;;;;5087933;28;20500;-68
2022/09/13 00:27:24;;;;;;;28.17;22.10;;;17.30;99.90;;;;;;5085014;28;20138;-65
2022/09/13 00:29:51;;;;;;;46.92;22.67;;;17.30;99.90;;;;;;5082138;28;20040;-67
2022/09/13 00:32:17;;;;;;;36.72;26.52;;;17.30;99.90;;;;;;5085953;28;20451;-65
2022/09/13 00:34:42;;;;;;;29.80;22.30;;;17.30;99.90;;;;;;5086917;28;20032;-67
2022/09/13 00:37:08;;;;;;;26.98;22.67;;;17.30;99.90;;;;;;5087497;28;20036;-65
2022/09/13 00:39:34;;;;;;;31.30;20.63;;;17.30;99.90;;;;;;5088537;28;20075;-67
2022/09/13 00:42:00;;;;;;;33.22;24.20;;;17.30;99.90;;;;;;5087931;28;20066;-68
2022/09/13 00:45:03;;;;;;;33.33;25.55;;;17.30;99.90;;;;;;5088740;28;20036;-64
2022/09/13 00:47:40;;;;;;;33.80;24.08;;;17.30;99.90;;;;;;5087449;28;20392;-64
2022/09/13 00:50:20;;;;;;;33.03;25.55;;;17.30;99.90;;;;;;5082011;28;20049;-64
2022/09/13 00:52:52;;;;;;;31.05;24.52;;;17.30;99.90;;;;;;5088818;28;20052;-64
2022/09/13 00:55:33;;;;;;;33.30;26.27;;;17.30;99.90;;;;;;5088191;28;20078;-65
2022/09/13 00:58:06;;;;;;;53.40;33.42;;;17.40;99.90;;;;;;5083372;28;20036;-66
2022/09/13 01:00:32;;;;;;;36.95;26.50;;;17.30;99.90;;;;;;5080737;28;20044;-66
2022/09/13 01:03:02;;;;;;;34.90;26.63;;;17.30;99.90;;;;;;5091193;28;20054;-65
2022/09/13 01:05:32;;;;;;;44.22;28.13;;;17.30;99.90;;;;;;5092159;28;20377;-65
2022/09/13 01:07:59;;;;;;;42.45;31.42;;;17.30;99.90;;;;;;5091679;28;20040;-65
2022/09/13 01:10:26;;;;;;;44.97;32.47;;;17.30;99.90;;;;;;5085978;28;20048;-65
2022/09/13 01:13:13;;;;;;;45.80;30.33;;;17.30;99.90;;;;;;5084307;28;20043;-65
2022/09/13 01:15:40;;;;;;;40.67;29.30;;;17.30;99.90;;;;;;5091552;28;20051;-65
2022/09/13 01:18:07;;;;;;;41.40;28.75;;;17.30;99.90;;;;;;5091198;28;20278;-65
2022/09/13 01:21:07;;;;;;;41.50;31.38;;;17.20;99.90;;;;;;5090285;28;20828;-65
2022/09/13 01:23:43;;;;;;;47.35;33.53;;;17.20;99.90;;;;;;5091919;28;20400;-64
2022/09/13 01:26:28;;;;;;;43.08;30.92;;;17.30;99.90;;;;;;5078624;28;20036;-64
2022/09/13 01:29:22;;;;;;;51.33;31.00;;;17.30;99.90;;;;;;5090406;28;20051;-65
2022/09/13 01:32:10;;;;;;;40.08;28.40;;;17.30;99.90;;;;;;5065242;28;20056;-65
2022/09/13 01:34:42;;;;;;;43.25;30.40;;;17.30;99.90;;;;;;5083723;28;20110;-64
2022/09/13 01:37:40;;;;;;;40.17;28.73;;;17.20;99.90;;;;;;5091128;28;20048;-64
2022/09/13 01:40:38;;;;;;;46.88;31.67;;;17.30;99.90;;;;;;5090832;28;20159;-65
2022/09/13 01:43:22;;;;;;;52.30;33.45;;;17.30;99.90;;;;;;5065404;28;20047;-65
2022/09/13 01:46:08;;;;;;;49.83;32.67;;;17.30;99.90;;;;;;5088573;28;20089;-65
2022/09/13 01:48:39;;;;;;;47.28;32.63;;;17.20;99.90;;;;;;5090979;28;20054;-65
2022/09/13 01:51:08;;;;;;;47.10;32.85;;;17.30;99.90;;;;;;5091065;28;20582;-65
2022/09/13 01:54:23;;;;;;;49.42;31.52;;;17.30;99.90;;;;;;5091362;28;20551;-65
2022/09/13 01:57:23;;;;;;;48.03;32.78;;;17.20;99.90;;;;;;5067946;28;20131;-65
2022/09/13 01:59:56;;;;;;;46.50;33.08;;;17.20;99.90;;;;;;5079990;28;20132;-65
2022/09/13 02:02:35;;;;;;;55.42;36.63;;;17.20;99.90;;;;;;5089108;28;20083;-65
2022/09/13 02:05:29;;;;;;;47.42;34.17;;;17.20;99.90;;;;;;5091073;28;20551;-65
2022/09/13 02:08:01;;;;;;;56.35;39.45;;;17.20;99.90;;;;;;5084870;28;20100;-65
2022/09/13 02:10:40;;;;;;;50.45;34.38;;;17.20;99.90;;;;;;5076470;28;20111;-65
2022/09/13 02:13:12;;;;;;;62.83;37.78;;;17.10;99.90;;;;;;5090306;28;20305;-65
2022/09/13 02:15:44;;;;;;;51.00;34.33;;;17.10;99.90;;;;;;5090989;28;20036;-65
2022/09/13 02:18:33;;;;;;;52.55;36.50;;;17.10;99.90;;;;;;5085000;28;20040;-65
2022/09/13 02:21:06;;;;;;;59.25;39.22;;;17.00;99.90;;;;;;5082247;28;20048;-65
2022/09/13 02:23:40;;;;;;;57.70;35.05;;;17.10;99.90;;;;;;5089821;28;20146;-65
2022/09/13 02:26:08;;;;;;;53.95;37.03;;;17.10;99.90;;;;;;5090731;28;20048;-65
2022/09/13 02:28:42;;;;;;;62.28;39.95;;;17.10;99.90;;;;;;5087458;28;20040;-65
2022/09/13 02:31:10;;;;;;;52.60;35.22;;;17.10;99.90;;;;;;5090161;28;20180;-65
2022/09/13 02:33:42;;;;;;;53.10;36.83;;;17.00;99.90;;;;;;5090010;28;20119;-65
2022/09/13 02:36:14;;;;;;;58.30;38.97;;;17.00;99.90;;;;;;5089781;28;20043;-65
2022/09/13 02:38:50;;;;;;;55.70;37.20;;;17.10;99.90;;;;;;5090150;28;20110;-65
2022/09/13 02:41:51;;;;;;;57.20;38.63;;;17.10;99.90;;;;;;5090281;28;20052;-65
2022/09/13 02:44:25;;;;;;;61.03;39.97;;;17.10;99.90;;;;;;5087569;28;20592;-65
2022/09/13 02:47:22;;;;;;;58.88;39.13;;;17.00;99.90;;;;;;5085890;28;20044;-65
2022/09/13 02:49:53;;;;;;;62.60;43.10;;;17.00;99.90;;;;;;5088456;28;20062;-65
2022/09/13 02:52:49;;;;;;;63.38;41.85;;;17.00;99.90;;;;;;5088538;28;20043;-65
2022/09/13 02:55:24;;;;;;;78.95;49.40;;;17.00;99.90;;;;;;5089644;28;20116;-65
2022/09/13 02:57:58;;;;;;;63.83;42.80;;;17.00;99.90;;;;;;5089201;28;20041;-65
2022/09/13 03:00:24;;;;;;;53.75;39.85;;;17.00;99.90;;;;;;5084363;28;20075;-65
2022/09/13 03:02:51;;;;;;;57.50;40.58;;;17.00;99.90;;;;;;5089065;28;20083;-65
2022/09/13 03:05:17;;;;;;;71.20;45.60;;;17.00;99.90;;;;;;5083915;28;20037;-65
2022/09/13 03:07:42;;;;;;;55.75;39.45;;;16.90;99.90;;;;;;5089751;28;20049;-65
2022/09/13 03:10:12;;;;;;;61.95;39.28;;;16.90;99.90;;;;;;5087996;28;20478;-65
2022/09/13 03:12:53;;;;;;;54.00;37.35;;;17.00;99.90;;;;;;5084091;28;20040;-66
2022/09/13 03:15:37;;;;;;;58.80;39.42;;;17.00;99.90;;;;;;5088981;28;20097;-66
2022/09/13 03:18:36;;;;;;;57.47;39.95;;;17.00;99.90;;;;;;5078870;28;20138;-66
2022/09/13 03:21:18;;;;;;;66.90;41.80;;;16.90;99.90;;;;;;5086260;28;20116;-66
2022/09/13 03:24:14;;;;;;;65.38;43.75;;;17.00;99.90;;;;;;5084341;28;20051;-66
2022/09/13 03:26:59;;;;;;;56.17;39.97;;;17.00;99.90;;;;;;5079252;28;20059;-66
2022/09/13 03:29:37;;;;;;;58.67;39.45;;;17.00;99.90;;;;;;5087871;28;20647;-66
2022/09/13 03:32:08;;;;;;;;;;;17.00;99.90;;;;;;5089821;28;20035;-66
2022/09/13 03:34:53;;;;;;;71.13;44.97;;;17.00;99.90;;;;;;5084835;28;19931;-66
2022/09/13 03:37:37;;;;;;;78.80;47.90;;;16.90;99.90;;;;;;5089296;28;20040;-66
2022/09/13 03:40:33;;;;;;;64.38;41.50;;;17.00;99.90;;;;;;5089044;28;20040;-66
2022/09/13 03:43:14;;;;;;;52.65;38.67;;;17.00;99.90;;;;;;5082913;28;20070;-66
2022/09/13 03:45:48;;;;;;;59.33;41.55;;;17.00;99.90;;;;;;5088648;28;20455;-66
2022/09/13 03:48:15;;;;;;;57.72;40.38;;;17.00;99.90;;;;;;5083794;28;20527;-66
2022/09/13 03:50:41;;;;;;;57.63;39.55;;;17.00;99.90;;;;;;5088747;28;20059;-66
2022/09/13 03:53:10;;;;;;;74.47;44.20;;;17.00;99.90;;;;;;5086097;28;20408;-66
2022/09/13 03:55:40;;;;;;;60.92;41.42;;;17.10;99.90;;;;;;5088673;28;20055;-66
2022/09/13 03:58:08;;;;;;;85.93;46.08;;;17.00;99.90;;;;;;5087494;28;20597;-66
2022/09/13 04:00:34;;;;;;;61.55;39.95;;;17.00;99.90;;;;;;5083491;28;20052;-66
2022/09/13 04:03:00;;;;;;;60.53;38.67;;;17.00;99.90;;;;;;5088413;28;20052;-66
2022/09/13 04:05:25;;;;;;;58.78;38.92;;;17.00;99.90;;;;;;5086876;28;20814;-66
2022/09/13 04:07:51;;;;;;;62.22;39.78;;;17.00;99.90;;;;;;5088904;28;20048;-66
2022/09/13 04:10:16;;;;;;;49.38;35.63;;;17.00;99.90;;;;;;5086754;28;20040;-66
2022/09/13 04:12:42;;;;;;;59.58;37.80;;;17.00;99.90;;;;;;5088679;28;20040;-66
2022/09/13 04:15:08;;;;;;;76.05;44.90;;;17.00;99.90;;;;;;5088234;28;20051;-66
2022/09/13 04:17:35;;;;;;;57.67;39.58;;;17.00;99.90;;;;;;5083240;28;20052;-66
2022/09/13 04:20:01;;;;;;;74.25;46.15;;;17.10;99.90;;;;;;5087870;28;20416;-66
2022/09/13 04:22:26;;;;;;;68.80;41.05;;;17.00;99.90;;;;;;5088620;28;20040;-67
2022/09/13 04:24:52;;;;;;;53.58;37.13;;;17.00;99.90;;;;;;5087449;28;20131;-66
2022/09/13 04:27:17;;;;;;;54.60;34.78;;;17.00;99.90;;;;;;5088265;28;20028;-66
2022/09/13 04:29:43;;;;;;;52.67;38.47;;;17.10;99.90;;;;;;5080833;28;20040;-66
2022/09/13 04:32:09;;;;;;;57.13;38.58;;;17.10;99.90;;;;;;5088451;28;20501;-66
2022/09/13 04:34:35;;;;;;;69.95;43.13;;;17.10;99.90;;;;;;5089320;28;20052;-66
2022/09/13 04:37:01;;;;;;;71.03;42.22;;;17.10;99.90;;;;;;5092612;28;20170;-66
2022/09/13 04:39:27;;;;;;;54.72;35.90;;;17.20;99.90;;;;;;5091762;28;20127;-66
2022/09/13 04:41:53;;;;;;;53.70;36.45;;;17.20;99.90;;;;;;5092687;28;20044;-66
2022/09/13 04:44:23;;;;;;;55.72;32.78;;;17.20;99.90;;;;;;5091515;28;20138;-66
2022/09/13 04:46:49;;;;;;;51.58;33.67;;;17.20;99.90;;;;;;5091579;28;20059;-66
2022/09/13 04:49:16;;;;;;;50.92;33.85;;;17.30;99.90;;;;;;5089907;28;20502;-66
2022/09/13 04:51:43;;;;;;;53.05;34.33;;;17.30;99.90;;;;;;5090555;28;20430;-65
2022/09/13 04:54:10;;;;;;;46.03;31.27;;;17.30;99.90;;;;;;5091018;28;20069;-66
2022/09/13 04:56:35;;;;;;;49.78;31.60;;;17.30;99.90;;;;;;5092061;28;20040;-66
2022/09/13 04:59:01;;;;;;;40.08;30.75;;;17.30;99.90;;;;;;5091046;28;20047;-66
2022/09/13 05:01:27;;;;;;;53.47;34.60;;;17.40;99.90;;;;;;5090999;28;20515;-66
2022/09/13 05:03:52;;;;;;;57.50;36.83;;;17.40;99.90;;;;;;5089915;28;20047;-66
2022/09/13 05:06:19;;;;;;;73.78;39.65;;;17.40;99.90;;;;;;5094900;28;20064;-66
2022/09/13 05:08:51;;;;;;;49.33;32.17;;;17.40;99.90;;;;;;5082664;28;20416;-66
2022/09/13 05:11:17;;;;;;;49.85;31.75;;;17.40;99.90;;;;;;5084104;28;20703;-65
2022/09/13 05:13:43;;;;;;;41.25;28.23;;;17.40;99.90;;;;;;5087682;28;20083;-65
2022/09/13 05:16:09;;;;;;;50.42;32.67;;;17.40;99.90;;;;;;5089696;28;20844;-65
2022/09/13 05:18:36;;;;;;;38.30;29.30;;;17.40;99.90;;;;;;5090180;28;20059;-65
2022/09/13 05:21:03;;;;;;;56.38;34.22;;;17.40;99.90;;;;;;5091164;28;20040;-65
2022/09/13 05:23:31;;;;;;;43.72;30.25;;;17.50;99.90;;;;;;5079937;28;20056;-65
2022/09/13 05:25:59;;;;;;;61.78;37.45;;;17.50;99.90;;;;;;5087929;28;20056;-65
2022/09/13 05:28:31;;;;;;;44.55;28.55;;;17.40;99.90;;;;;;5088918;28;20075;-65
2022/09/13 05:31:07;;;;;;;62.50;33.28;;;17.50;99.90;;;;;;5090723;28;20043;-65
2022/09/13 05:33:36;;;;;;;39.60;28.73;;;17.40;99.90;;;;;;5089483;28;20141;-65
2022/09/13 05:36:03;;;;;;;36.55;28.38;;;17.40;99.90;;;;;;5090703;28;20111;-65
2022/09/13 05:38:29;;;;;;;44.13;28.38;;;17.40;99.90;;;;;;5090063;28;20040;-65
2022/09/13 05:40:57;;;;;;;41.10;24.75;;;17.40;99.90;;;;;;5089427;28;20039;-65
2022/09/13 05:43:24;;;;;;;39.25;25.40;;;17.50;99.90;;;;;;5089775;28;20052;-65
2022/09/13 05:45:50;;;;;;;39.35;24.38;;;17.50;99.90;;;;;;5087528;28;20074;-65
2022/09/13 05:48:16;;;;;;;37.72;26.55;;;17.50;99.90;;;;;;5090025;28;20075;-65
2022/09/13 05:50:42;;;;;;;44.90;27.42;;;17.50;99.90;;;;;;5090283;28;20070;-65
2022/09/13 05:53:08;;;;;;;42.40;27.13;;;17.50;99.90;;;;;;5088494;28;20460;-65
2022/09/13 05:55:34;;;;;;;55.92;32.95;;;17.50;99.90;;;;;;5088057;28;20048;-65
2022/09/13 05:58:02;;;;;;;54.40;32.35;;;17.50;99.90;;;;;;5090113;28;20488;-65
2022/09/13 06:00:31;;;;;;;50.42;29.50;;;17.50;99.90;;;;;;5087321;28;20151;-65
2022/09/13 06:02:57;;;;;;;44.05;27.50;;;17.60;99.90;;;;;;5090542;28;20576;-65
2022/09/13 06:05:22;;;;;;;39.05;26.25;;;17.50;99.90;;;;;;5088527;28;20060;-65
2022/09/13 06:07:48;;;;;;;43.15;28.70;;;17.50;99.90;;;;;;5089514;28;21149;-65
2022/09/13 06:10:14;;;;;;;49.95;28.88;;;17.50;99.90;;;;;;5091328;28;20036;-65
2022/09/13 06:12:40;;;;;;;49.65;31.75;;;17.50;99.90;;;;;;5086831;28;20036;-64
2022/09/13 06:15:06;;;;;;;36.13;25.58;;;17.50;99.90;;;;;;5089859;28;20042;-65
2022/09/13 06:17:31;;;;;;;37.40;24.40;;;17.50;99.90;;;;;;5088613;28;20508;-65
2022/09/13 06:19:57;;;;;;;39.03;24.33;;;17.60;99.90;;;;;;5082349;28;20052;-65
2022/09/13 06:22:23;;;;;;;30.40;20.17;;;17.50;99.90;;;;;;5086659;28;20484;-65
2022/09/13 06:24:48;;;;;;;28.50;21.17;;;17.50;99.90;;;;;;5085737;28;20086;-65
2022/09/13 06:27:14;;;;;;;48.28;21.80;;;17.60;99.90;;;;;;5089389;28;20119;-65
2022/09/13 06:29:40;;;;;;;23.48;14.80;;;17.50;99.90;;;;;;5090082;28;20386;-65
2022/09/13 06:32:05;;;;;;;19.77;12.70;;;17.50;99.90;;;;;;5089451;28;20131;-65
2022/09/13 06:34:31;;;;;;;18.13;12.68;;;17.50;99.90;;;;;;5090984;28;20055;-65
2022/09/13 06:37:00;;;;;;;17.45;11.35;;;17.50;99.90;;;;;;5090513;28;20047;-65
2022/09/13 06:39:26;;;;;;;19.15;9.68;;;17.50;99.90;;;;;;5089492;28;20051;-65
2022/09/13 06:41:51;;;;;;;11.95;9.45;;;17.50;99.90;;;;;;5081699;28;20040;-65
2022/09/13 06:44:17;;;;;;;11.75;7.53;;;17.50;99.90;;;;;;5089656;28;20507;-65
2022/09/13 06:46:42;;;;;;;14.32;8.20;;;17.50;99.90;;;;;;5085096;28;20082;-65
2022/09/13 06:49:09;;;;;;;13.40;6.75;;;17.40;99.90;;;;;;5086648;28;20117;-65
2022/09/13 06:51:35;;;;;;;16.73;6.40;;;17.40;99.90;;;;;;5086561;28;20404;-65
2022/09/13 06:54:02;;;;;;;17.70;8.05;;;17.40;99.90;;;;;;5084161;28;20056;-65
2022/09/13 06:56:33;;;;;;;9.43;6.35;;;17.40;99.90;;;;;;5089714;28;20548;-65
2022/09/13 06:59:03;;;;;;;9.07;5.63;;;17.40;99.90;;;;;;5083295;28;20405;-64
2022/09/13 07:01:38;;;;;;;6.03;4.90;;;17.40;99.90;;;;;;5085900;28;20066;-65
2022/09/13 07:04:09;;;;;;;11.95;5.32;;;17.40;99.90;;;;;;5088262;28;20093;-64
2022/09/13 07:06:37;;;;;;;7.38;4.72;;;17.40;99.90;;;;;;5088366;28;20070;-64
2022/09/13 07:09:05;;;;;;;;;;;17.50;99.90;;;;;;5089359;28;20149;-64
2022/09/13 07:11:33;;;;;;;7.82;5.18;;;17.40;99.90;;;;;;5088118;28;19924;-64
2022/09/13 07:14:00;;;;;;;22.73;7.00;;;17.40;99.90;;;;;;5088591;28;20436;-64
2022/09/13 07:16:39;;;;;;;9.48;5.85;;;17.40;99.90;;;;;;5089254;28;20051;-64
2022/09/13 07:19:14;;;;;;;12.40;5.55;;;17.50;99.90;;;;;;5082503;28;20050;-64
2022/09/13 07:21:40;;;;;;;9.10;5.95;;;17.50;99.90;;;;;;5082582;28;20447;-65
2022/09/13 07:24:05;;;;;;;6.28;4.82;;;17.60;99.90;;;;;;5088372;28;20047;-65
2022/09/13 07:26:31;;;;;;;9.85;5.45;;;17.60;99.90;;;;;;5089260;28;20131;-64
2022/09/13 07:29:00;;;;;;;7.05;5.55;;;17.70;99.90;;;;;;5089336;28;20032;-65
2022/09/13 07:31:32;;;;;;;9.85;5.10;;;17.80;99.90;;;;;;5094723;28;20040;-65
2022/09/13 07:33:59;;;;;;;12.98;5.70;;;17.80;99.90;;;;;;5088997;28;20451;-64
2022/09/13 07:36:27;;;;;;;5.63;4.82;;;17.80;99.90;;;;;;5084428;28;20685;-65
2022/09/13 07:38:52;;;;;;;10.05;5.20;;;17.90;99.90;;;;;;5084239;28;20725;-65
2022/09/13 07:41:21;;;;;;;11.15;5.70;;;18.00;99.90;;;;;;5088234;28;20036;-65
2022/09/13 07:43:47;;;;;;;11.63;5.05;;;18.20;99.90;;;;;;5086091;28;20155;-65
2022/09/13 07:46:16;;;;;;;6.68;4.90;;;18.40;99.90;;;;;;5082068;28;20488;-65
2022/09/13 07:48:44;;;;;;;10.50;5.20;;;18.40;99.90;;;;;;5085260;28;20051;-65
2022/09/13 07:51:21;;;;;;;15.02;5.65;;;18.50;99.90;;;;;;5089250;28;20089;-65
2022/09/13 07:53:49;;;;;;;12.70;5.13;;;18.60;99.90;;;;;;5085277;28;20066;-65
2022/09/13 07:56:17;;;;;;;7.22;4.28;;;18.70;99.90;;;;;;5087875;28;20136;-65
2022/09/13 07:58:44;;;;;;;11.02;3.58;;;18.80;99.90;;;;;;5088358;28;20043;-65
2022/09/13 08:01:12;;;;;;;7.90;4.00;;;18.90;99.90;;;;;;5086725;28;20056;-65
2022/09/13 08:03:38;;;;;;;13.02;3.90;;;19.00;99.90;;;;;;5081522;28;20056;-65
2022/09/13 08:06:05;;;;;;;6.97;2.92;;;19.00;99.90;;;;;;5082075;28;20420;-65
2022/09/13 08:08:32;;;;;;;4.97;3.30;;;19.00;99.90;;;;;;5086353;28;20042;-65
2022/09/13 08:10:58;;;;;;;14.77;3.90;;;19.00;99.90;;;;;;5083573;28;20294;-65
2022/09/13 08:13:24;;;;;;;4.97;3.03;;;19.10;99.90;;;;;;5085557;28;20040;-65
2022/09/13 08:15:50;;;;;;;9.73;3.20;;;19.40;99.90;;;;;;5088640;28;20094;-65
2022/09/13 08:18:17;;;;;;;7.95;3.22;;;19.50;99.90;;;;;;5087156;28;20036;-64
2022/09/13 08:20:43;;;;;;;15.50;4.40;;;19.70;99.90;;;;;;5084853;28;20044;-65
2022/09/13 08:23:11;;;;;;;4.55;2.70;;;19.60;99.90;;;;;;5095393;28;20539;-65
2022/09/13 08:25:39;;;;;;;7.68;2.92;;;19.50;99.90;;;;;;5077536;28;20454;-64
2022/09/13 08:28:06;;;;;;;7.13;3.45;;;19.50;99.90;;;;;;5087348;28;20042;-64
2022/09/13 08:30:36;;;;;;;7.25;3.15;;;19.40;99.90;;;;;;5088087;28;20137;-65
2022/09/13 08:33:05;;;;;;;14.43;3.58;;;19.40;99.90;;;;;;5091121;28;20042;-65
2022/09/13 08:35:32;;;;;;;5.82;2.33;;;19.40;99.90;;;;;;5087428;28;20169;-65
2022/09/13 08:37:58;;;;;;;6.72;2.75;;;19.40;99.90;;;;;;5086213;28;20083;-64
2022/09/13 08:40:27;;;;;;;7.93;2.90;;;19.60;99.90;;;;;;5085962;28;20083;-64
2022/09/13 08:43:11;;;;;;;18.92;7.60;;;19.60;99.90;;;;;;5089265;28;20568;-64
2022/09/13 08:45:38;;;;;;;8.80;3.33;;;19.60;99.90;;;;;;5083003;28;20073;-64
2022/09/13 08:48:13;;;;;;;13.50;3.67;;;20.00;99.90;;;;;;5087544;28;20044;-64
2022/09/13 08:50:41;;;;;;;7.47;2.65;;;20.30;99.90;;;;;;5087409;28;20044;-65
2022/09/13 08:53:12;;;;;;;;;;;20.50;99.90;;;;;;5083369;28;20053;-64
2022/09/13 08:55:50;;;;;;;6.43;3.30;;;20.50;99.90;;;;;;5086124;28;19955;-65
2022/09/13 08:58:37;;;;;;;7.78;2.13;;;20.60;99.90;;;;;;5087635;28;20093;-65
2022/09/13 09:01:07;;;;;;;2.88;2.00;;;20.60;99.90;;;;;;5086333;28;20046;-64
2022/09/13 09:03:55;;;;;;;6.13;2.80;;;20.60;99.90;;;;;;5087324;28;20040;-64
2022/09/13 09:06:22;;;;;;;6.88;2.40;;;20.80;99.90;;;;;;5087518;28;20141;-65
2022/09/13 09:08:57;;;;;;;9.25;2.33;;;20.90;99.90;;;;;;5087567;28;20076;-65
2022/09/13 09:11:28;;;;;;;4.88;1.75;;;21.00;99.90;;;;;;5085093;28;20154;-65
2022/09/13 09:13:58;;;;;;;9.20;2.10;;;20.90;99.90;;;;;;5077034;28;20055;-64
2022/09/13 09:16:40;;;;;;;4.60;1.98;;;20.90;99.90;;;;;;5085667;28;20043;-64
2022/09/13 09:19:21;;;;;;;4.13;2.38;;;21.00;99.90;;;;;;5084463;28;20086;-65
2022/09/13 09:21:50;;;;;;;4.22;2.17;;;21.10;99.90;;;;;;5085094;28;20052;-65
2022/09/13 09:24:22;;;;;;;10.88;2.17;;;21.30;99.90;;;;;;5086988;28;20085;-64
2022/09/13 09:26:48;;;;;;;11.20;2.47;;;21.60;99.90;;;;;;5089675;28;20052;-64
2022/09/13 09:29:16;;;;;;;4.47;2.55;;;21.70;99.90;;;;;;5091290;28;20489;-64
2022/09/13 09:32:11;;;;;;;6.53;2.35;;;21.80;99.90;;;;;;5090879;28;20040;-64
2022/09/13 09:34:50;;;;;;;6.25;2.22;;;22.00;99.90;;;;;;5088992;28;20097;-64
2022/09/13 09:37:24;;;;;;;4.60;2.60;;;22.00;99.90;;;;;;5102141;28;20044;-65
2022/09/13 09:39:53;;;;;;;3.65;1.88;;;22.10;99.90;;;;;;5085923;28;20130;-64
2022/09/13 09:42:25;;;;;;;8.60;2.20;;;22.00;99.90;;;;;;5091720;28;20329;-64
2022/09/13 09:44:55;;;;;;;6.90;2.45;;;22.10;99.90;;;;;;5091067;28;20080;-65
2022/09/13 09:47:24;;;;;;;5.57;2.05;;;22.20;99.90;;;;;;5086535;28;20408;-65
2022/09/13 09:50:10;;;;;;;7.03;1.98;;;22.40;99.90;;;;;;5090190;28;20052;-67
2022/09/13 09:52:58;;;;;;;5.43;2.03;;;22.50;99.90;;;;;;5090389;28;20073;-67
2022/09/13 09:55:34;;;;;;;8.25;1.92;;;22.30;99.90;;;;;;5088999;28;20048;-65
2022/09/13 09:58:05;;;;;;;4.82;1.92;;;22.40;99.90;;;;;;5089691;28;20048;-65
2022/09/13 10:00:34;;;;;;;4.20;1.92;;;22.20;99.90;;;;;;5090320;28;20040;-66
2022/09/13 10:03:04;;;;;;;8.07;2.05;;;22.40;99.90;;;;;;5090736;28;20055;-65
2022/09/13 10:05:31;;;;;;;5.70;2.35;;;22.40;99.90;;;;;;5090915;28;20084;-66
2022/09/13 10:08:21;;;;;;;10.63;3.33;;;22.30;99.90;;;;;;5090956;28;20090;-66
2022/09/13 10:10:53;;;;;;;5.35;2.50;;;22.50;99.90;;;;;;5088940;28;20052;-66
2022/09/13 10:13:21;;;;;;;3.75;2.08;;;22.60;99.90;;;;;;5088236;28;20066;-66
2022/09/13 10:16:00;;;;;;;9.95;2.60;;;22.50;99.90;;;;;;5084139;28;20035;-66
2022/09/13 10:18:30;;;;;;;9.95;2.53;;;22.30;99.90;;;;;;5088146;28;20048;-66
2022/09/13 10:21:07;;;;;;;13.85;2.75;;;22.30;99.90;;;;;;5080790;28;20040;-66
2022/09/13 10:23:34;;;;;;;8.60;2.50;;;22.10;99.90;;;;;;5085263;28;20404;-68
2022/09/13 10:26:10;;;;;;;9.88;2.33;;;22.30;99.90;;;;;;5088478;28;20553;-66
2022/09/13 10:28:51;;;;;;;7.18;2.35;;;22.50;99.90;;;;;;5090045;28;20093;-66
2022/09/13 10:31:19;;;;;;;7.10;2.03;;;22.60;99.90;;;;;;5089218;28;20040;-66
2022/09/13 10:33:57;;;;;;;8.35;1.92;;;22.70;99.90;;;;;;5087411;28;20526;-66
2022/09/13 10:36:28;;;;;;;3.78;1.85;;;22.80;99.90;;;;;;5085853;28;20486;-66
2022/09/13 10:39:00;;;;;;;7.57;2.60;;;23.00;99.90;;;;;;5089713;28;20101;-66
2022/09/13 10:41:29;;;;;;;6.47;2.25;;;23.10;99.90;;;;;;5090433;28;20124;-66
2022/09/13 10:44:03;;;;;;;10.60;1.92;;;23.00;99.90;;;;;;5094077;28;20074;-66
2022/09/13 10:46:33;;;;;;;10.75;2.45;;;23.00;99.90;;;;;;5087418;28;20093;-66
2022/09/13 10:48:59;;;;;;;8.50;2.65;;;22.70;99.90;;;;;;5081600;28;20047;-66
2022/09/13 10:51:30;;;;;;;7.75;2.67;;;22.60;99.90;;;;;;5089475;28;20044;-66
2022/09/13 10:54:16;;;;;;;8.52;2.45;;;22.40;99.90;;;;;;5088567;28;20059;-66
2022/09/13 10:56:43;;;;;;;11.05;2.60;;;22.30;99.90;;;;;;5087976;28;20181;-66
2022/09/13 10:59:26;;;;;;;5.93;2.22;;;22.30;99.90;;;;;;5087321;28;20473;-66
2022/09/13 11:02:26;;;;;;;9.30;3.53;;;22.50;99.90;;;;;;5085825;28;20055;-66
2022/09/13 11:05:25;;;;;;;8.35;2.40;;;22.90;99.90;;;;;;5088316;28;20117;-66
2022/09/13 11:08:10;;;;;;;3.03;2.05;;;22.90;99.90;;;;;;5089416;28;20044;-66
2022/09/13 11:11:00;;;;;;;6.97;2.00;;;23.10;99.90;;;;;;5076302;28;20044;-66
2022/09/13 11:13:51;;;;;;;5.63;2.42;;;23.00;99.90;;;;;;5087489;28;20040;-66
2022/09/13 11:16:38;;;;;;;5.28;1.80;;;22.80;99.90;;;;;;5087997;28;20039;-66
2022/09/13 11:19:29;;;;;;;7.72;2.17;;;22.50;99.90;;;;;;5081318;28;20546;-66
2022/09/13 11:22:23;;;;;;;5.72;2.67;;;22.60;99.90;;;;;;5083451;28;20044;-66
2022/09/13 11:25:13;;;;;;;10.07;2.45;;;22.80;99.90;;;;;;5088572;28;20044;-66
2022/09/13 11:28:06;;;;;;;5.80;2.30;;;23.00;99.90;;;;;;5085479;28;20090;-66
2022/09/13 11:30:50;;;;;;;12.55;2.45;;;23.00;94.60;;;;;;5081590;28;20094;-66
2022/09/13 11:33:52;;;;;;;12.10;2.63;;;23.10;99.90;;;;;;5080978;28;20043;-67
2022/09/13 11:36:34;;;;;;;6.25;2.35;;;23.30;96.60;;;;;;5077279;28;20048;-67
2022/09/13 11:39:18;;;;;;;7.55;2.20;;;23.40;99.90;;;;;;5079864;28;20051;-66
2022/09/13 11:42:17;;;;;;;7.72;2.47;;;23.50;99.90;;;;;;5086849;28;20047;-66
2022/09/13 11:44:49;;;;;;;9.57;2.50;;;23.40;99.90;;;;;;5086432;28;20625;-66
2022/09/13 11:47:34;;;;;;;4.15;2.05;;;23.40;99.90;;;;;;5085884;28;20062;-66
2022/09/13 11:50:22;;;;;;;6.10;1.95;;;23.40;99.90;;;;;;5081389;28;20051;-66
2022/09/13 11:52:58;;;;;;;7.43;3.10;;;23.30;99.90;;;;;;5086878;28;20146;-66
2022/09/13 11:55:36;;;;;;;3.83;2.40;;;23.20;99.90;;;;;;5087336;28;20055;-66
2022/09/13 11:58:08;;;;;;;7.50;2.28;;;23.10;99.90;;;;;;5087145;28;20045;-67
2022/09/13 12:00:47;;;;;;;13.50;3.20;;;23.10;99.90;;;;;;5086521;28;20412;-66
2022/09/13 12:03:13;;;;;;;13.75;2.90;;;23.10;99.90;;;;;;5087502;28;20150;-67
2022/09/13 12:05:56;;;;;;;11.70;3.25;;;23.10;99.90;;;;;;5088352;28;20047;-67
2022/09/13 12:08:26;;;;;;;5.78;2.40;;;23.10;99.90;;;;;;5085539;28;20055;-66
2022/09/13 12:10:56;;;;;;;8.82;2.70;;;23.20;99.90;;;;;;5077154;28;20050;-66
2022/09/13 12:13:39;;;;;;;2.20;2.00;;;23.10;99.90;;;;;;5084880;28;20040;-66
2022/09/13 12:16:08;;;;;;;9.27;2.60;;;23.10;99.90;;;;;;5081159;28;20740;-66
2022/09/13 12:18:40;;;;;;;11.75;2.63;;;23.00;99.90;;;;;;5087007;28;20093;-66
2022/09/13 12:21:13;;;;;;;4.03;2.15;;;23.00;99.90;;;;;;5086907;28;20048;-66
2022/09/13 12:23:52;;;;;;;17.02;3.92;;;23.00;99.90;;;;;;5084616;28;20052;-66
2022/09/13 12:26:23;;;;;;;7.45;2.22;;;23.20;99.90;;;;;;5091254;28;20048;-66
2022/09/13 12:28:53;;;;;;;8.13;2.83;;;23.30;99.90;;;;;;5085184;28;20075;-66
2022/09/13 12:31:22;;;;;;;5.75;1.90;;;23.40;99.90;;;;;;5086872;28;20062;-66
2022/09/13 12:33:48;;;;;;;8.52;2.85;;;23.30;99.90;;;;;;5086360;28;20524;-66
2022/09/13 12:36:47;;;;;;;7.30;2.30;;;23.30;99.30;;;;;;5086058;28;20040;-66
2022/09/13 12:39:16;;;;;;;11.38;2.83;;;23.30;99.90;;;;;;5087013;28;20490;-65
2022/09/13 12:41:46;;;;;;;5.03;2.13;;;23.20;99.90;;;;;;5086826;28;20040;-66
2022/09/13 12:44:14;;;;;;;6.10;2.88;;;23.20;99.90;;;;;;5084900;28;20046;-66
2022/09/13 12:46:56;;;;;;;13.60;2.90;;;22.90;99.90;;;;;;5083403;28;20040;-66
2022/09/13 12:49:52;;;;;;;8.80;2.63;;;22.80;99.90;;;;;;5083242;28;20541;-66
2022/09/13 12:52:58;;;;;;;8.10;2.28;;;22.90;99.90;;;;;;5080592;28;20056;-66
2022/09/13 12:55:53;;;;;;;8.00;2.80;;;22.80;99.90;;;;;;5086518;28;20078;-65
2022/09/13 12:58:39;;;;;;;8.25;2.47;;;22.90;99.90;;;;;;5074227;28;20416;-66
2022/09/13 13:01:14;;;;;;;7.10;2.25;;;23.00;99.90;;;;;;5089029;28;20040;-66
2022/09/13 13:04:00;;;;;;;8.25;2.67;;;23.10;99.90;;;;;;5076820;28;20060;-66
2022/09/13 13:06:46;;;;;;;5.53;2.70;;;23.10;99.90;;;;;;5081848;28;20089;-66